createdAt,value
2022-12-01T00:00:01.796Z,1018.4512501512935
2022-12-01T00:15:01.734Z,1018.2861716793602
2022-12-01T00:30:02.446Z,1018.3359937358239
2022-12-01T00:45:02.253Z,1018.3005881533873
2022-12-01T01:00:01.924Z,1018.3530751946872
2022-12-01T01:15:01.577Z,1018.3918847206121
2022-12-01T01:30:02.295Z,1018.4681376340986
2022-12-01T01:45:01.936Z,1018.5763171437274
2022-12-01T02:00:01.566Z,1018.5951364498651
2022-12-01T02:15:02.210Z,1018.502648215758
2022-12-01T02:30:01.877Z,1018.5288543481188
2022-12-01T02:45:01.623Z,1018.4982112542858
2022-12-01T03:00:02.284Z,1018.4832276900562
2022-12-01T03:15:01.935Z,1018.4830625130563
2022-12-01T03:30:01.608Z,1018.3857509680846
2022-12-01T03:45:02.256Z,1018.4857833578202
2022-12-01T04:00:01.908Z,1018.5690257028714
2022-12-01T04:15:01.555Z,1018.5848781443634
2022-12-01T04:30:02.201Z,1018.6820431998764
2022-12-01T04:45:01.837Z,1018.6457108396644
2022-12-01T05:00:01.453Z,1018.6554916547392
2022-12-01T05:15:02.088Z,1018.687759735195
2022-12-01T05:30:01.869Z,1018.7292604875831
2022-12-01T05:45:01.649Z,1018.7655783369734
2022-12-01T06:00:02.274Z,1018.8432269251616
2022-12-01T06:15:01.927Z,1018.8980826549318
2022-12-01T06:30:01.600Z,1018.9303300056245
2022-12-01T06:45:02.625Z,1019.0078268079203
2022-12-01T07:00:01.358Z,1019.0948067109703
2022-12-01T07:15:01.345Z,1019.2048322584969
2022-12-01T07:30:02.024Z,1019.2932909123945
2022-12-01T07:45:01.668Z,1019.2790112570135
2022-12-01T08:00:01.311Z,1019.3540084746561
2022-12-01T08:15:02.316Z,1019.4657264254362
2022-12-01T08:30:02.122Z,1019.6098054877205
2022-12-01T08:45:01.915Z,1019.6741026064134
2022-12-01T09:00:01.626Z,1019.7055713496727
2022-12-01T09:15:02.274Z,1019.7723555731794
2022-12-01T09:30:01.960Z,1019.8343001482328
2022-12-01T09:45:01.595Z,1019.8282818951072
2022-12-01T10:00:02.226Z,1019.7544805189713
2022-12-01T10:15:01.882Z,1019.6162570421749
2022-12-01T10:30:01.532Z,1019.5777532756505
2022-12-01T10:45:02.214Z,1019.5167409331497
2022-12-01T11:00:01.858Z,1019.5137175209716
2022-12-01T11:15:01.518Z,1019.5250706931371
2022-12-01T11:30:02.186Z,1019.4661408147236
2022-12-01T11:45:01.835Z,1019.4505312197513
2022-12-01T12:00:01.455Z,1019.3348124180873
2022-12-01T12:15:02.096Z,1019.2385989240678
2022-12-01T12:30:01.785Z,1019.1716530901664
2022-12-01T12:45:01.458Z,1019.0525997799408
2022-12-01T13:00:02.121Z,1019.0042380054366
2022-12-01T13:15:02.030Z,1018.9470876642782
2022-12-01T13:30:01.733Z,1018.9034981115319
2022-12-01T13:45:01.393Z,1018.8480588092875
2022-12-01T14:00:02.004Z,1018.8946702773521
2022-12-01T14:15:01.676Z,1018.9679917075101
2022-12-01T14:30:01.347Z,1019.0967076266755
2022-12-01T14:45:02.095Z,1019.2048322584969
2022-12-01T15:00:01.811Z,1019.1148969400033
2022-12-01T15:15:01.427Z,1018.9927322161947
2022-12-01T15:30:02.088Z,1018.8914053073954
2022-12-01T15:45:02.173Z,1019.0090628436598
2022-12-01T16:00:02.064Z,1019.1190578301803
2022-12-01T16:15:01.962Z,1019.160936466618
2022-12-01T16:30:01.990Z,1019.1583708380266
2022-12-01T16:45:01.776Z,1019.1919736237545
2022-12-01T17:00:02.491Z,1019.1960842102724
2022-12-01T17:15:02.167Z,1019.3000133640834
2022-12-01T17:30:01.944Z,1019.4019254822191
2022-12-01T17:45:01.703Z,1019.4721239866853
2022-12-01T18:00:02.357Z,1019.5111630704571
2022-12-01T18:15:01.986Z,1019.5038193552429
2022-12-01T18:30:01.637Z,1019.5277280576483
2022-12-01T18:45:02.270Z,1019.4894928806971
2022-12-01T19:00:01.963Z,1019.5797785375872
2022-12-01T19:15:01.633Z,1019.49232431612
2022-12-01T19:30:02.292Z,1019.4428147150632
2022-12-01T19:45:02.057Z,1019.355879458339
2022-12-01T20:00:01.691Z,1019.3505756820678
2022-12-01T20:15:02.398Z,1019.2687114880008
2022-12-01T20:30:02.125Z,1019.2135950337554
2022-12-01T20:45:01.758Z,1019.3181047696755
2022-12-01T21:00:01.409Z,1019.2528970108932
2022-12-01T21:15:02.047Z,1019.1460684372942
2022-12-01T21:30:01.729Z,1019.0908580030954
2022-12-01T21:45:01.368Z,1019.0009653430845
2022-12-01T22:00:02.015Z,1018.9761893544654
2022-12-01T22:15:01.691Z,1018.8485145305475
2022-12-01T22:30:01.341Z,1018.7801248833962
2022-12-01T22:45:02.033Z,1018.7192373900263
2022-12-01T23:00:01.671Z,1018.7044069767176
2022-12-01T23:15:01.364Z,1018.5894966373997
2022-12-01T23:30:02.041Z,1018.5227934426943
2022-12-01T23:45:01.673Z,1018.4077982729397
